KWST/WST METAR and TAF weather

Enter ICAO airport designator
Station Type Date Time Source
KWST METAR 2021/01/16 02:53 UTC NOAA

KWST 160253Z AUTO 07010G19KT 10SM FEW031 04/M01 A2995 RMK AO2 SLP142 T00391006 58039


Station Type Date Time Source
KWST Decoded METAR 2021/01/16 02:53 UTC NOAA

WESTERLY STATE AIRPORT, RI, United States (KWST) 41-21N 071-48W 21M
Jan 15, 2021 - 09:53 PM EST / 2021.01.16 0253 UTC
Wind: from the ENE (070 degrees) at 12 MPH (10 KT) gusting to 22 MPH (19 KT):0
Visibility: 10 mile(s):0
Sky conditions: mostly clear
Temperature: 39.0 F (3.9 C)
Dew Point: 30.9 F (-0.6 C)
Relative Humidity: 72%
Pressure (altimeter): 29.95 in. Hg (1014 hPa)
Pressure tendency: 0.12 inches (3.9 hPa) lower than three hours ago
ob: KWST 160253Z AUTO 07010G19KT 10SM FEW031 04/M01 A2995 RMK AO2 SLP142 T00391006 58039
cycle: 3

Station Type Date Time Source
KWST TAF UTC NOAA

Error!

Example: see airport list